sensor_id;sensor_type;location;lat;lon;timestamp;pressure;altitude;pressure_sealevel;temperature;humidity
21547;BME280;41275;51.912;4.388;2023-07-30T00:02:54;100867.47;;;23.79;49.34
21547;BME280;41275;51.912;4.388;2023-07-30T00:08:15;100871.13;;;23.74;49.75
21547;BME280;41275;51.912;4.388;2023-07-30T00:13:36;100874.78;;;23.78;50.01
21547;BME280;41275;51.912;4.388;2023-07-30T00:18:58;100872.09;;;23.87;50.10
21547;BME280;41275;51.912;4.388;2023-07-30T00:24:19;100881.34;;;23.94;50.43
21547;BME280;41275;51.912;4.388;2023-07-30T00:29:40;100875.00;;;24.08;50.67
21547;BME280;41275;51.912;4.388;2023-07-30T00:35:01;100876.91;;;24.16;50.64
21547;BME280;41275;51.912;4.388;2023-07-30T00:40:24;100882.19;;;24.30;50.79
21547;BME280;41275;51.912;4.388;2023-07-30T00:45:45;100889.19;;;24.31;51.13
21547;BME280;41275;51.912;4.388;2023-07-30T00:51:07;100897.13;;;24.36;51.11
21547;BME280;41275;51.912;4.388;2023-07-30T00:56:30;100891.13;;;24.39;51.34
21547;BME280;41275;51.912;4.388;2023-07-30T01:01:51;100901.16;;;24.47;51.31
21547;BME280;41275;51.912;4.388;2023-07-30T01:07:13;100908.31;;;24.52;51.38
21547;BME280;41275;51.912;4.388;2023-07-30T01:12:35;100901.94;;;24.47;51.43
21547;BME280;41275;51.912;4.388;2023-07-30T01:17:57;100903.69;;;24.52;51.54
21547;BME280;41275;51.912;4.388;2023-07-30T01:23:18;100907.34;;;24.56;51.28
21547;BME280;41275;51.912;4.388;2023-07-30T01:28:43;100898.44;;;24.47;51.65
21547;BME280;41275;51.912;4.388;2023-07-30T01:34:07;100898.59;;;24.51;51.76
21547;BME280;41275;51.912;4.388;2023-07-30T01:39:32;100908.31;;;24.52;51.87
21547;BME280;41275;51.912;4.388;2023-07-30T01:44:54;100908.97;;;24.57;51.70
21547;BME280;41275;51.912;4.388;2023-07-30T01:50:15;100909.59;;;24.63;51.65
21547;BME280;41275;51.912;4.388;2023-07-30T01:55:36;100908.00;;;24.53;51.46
21547;BME280;41275;51.912;4.388;2023-07-30T02:00:59;100914.97;;;24.37;51.43
21547;BME280;41275;51.912;4.388;2023-07-30T02:06:20;100918.66;;;24.41;51.85
21547;BME280;41275;51.912;4.388;2023-07-30T02:11:41;100915.16;;;24.58;51.76
21547;BME280;41275;51.912;4.388;2023-07-30T02:17:03;100915.31;;;24.61;51.49
21547;BME280;41275;51.912;4.388;2023-07-30T02:22:24;100913.25;;;24.58;51.69
21547;BME280;41275;51.912;4.388;2023-07-30T02:27:45;100896.53;;;24.56;51.45
21547;BME280;41275;51.912;4.388;2023-07-30T02:33:07;100899.56;;;24.55;51.61
21547;BME280;41275;51.912;4.388;2023-07-30T02:38:28;100901.13;;;24.56;51.83
21547;BME280;41275;51.912;4.388;2023-07-30T02:43:49;100899.88;;;24.53;52.07
21547;BME280;41275;51.912;4.388;2023-07-30T02:49:10;100893.03;;;24.56;51.84
21547;BME280;41275;51.912;4.388;2023-07-30T02:54:32;100902.59;;;24.53;52.27
21547;BME280;41275;51.912;4.388;2023-07-30T02:59:53;100895.72;;;24.56;52.08
21547;BME280;41275;51.912;4.388;2023-07-30T03:05:14;100887.63;;;24.56;52.29
21547;BME280;41275;51.912;4.388;2023-07-30T03:10:38;100890.16;;;24.52;52.25
21547;BME280;41275;51.912;4.388;2023-07-30T03:16:00;100896.53;;;24.47;52.44
21547;BME280;41275;51.912;4.388;2023-07-30T03:21:21;100898.59;;;24.51;52.40
21547;BME280;41275;51.912;4.388;2023-07-30T03:26:42;100896.84;;;24.37;52.61
21547;BME280;41275;51.912;4.388;2023-07-30T03:32:04;100903.31;;;24.28;52.34
21547;BME280;41275;51.912;4.388;2023-07-30T03:37:25;100910.47;;;24.23;52.31
21547;BME280;41275;51.912;4.388;2023-07-30T03:42:46;100907.94;;;24.18;51.79
21547;BME280;41275;51.912;4.388;2023-07-30T03:48:08;100909.84;;;24.18;51.30
21547;BME280;41275;51.912;4.388;2023-07-30T03:53:29;100908.56;;;24.15;50.97
21547;BME280;41275;51.912;4.388;2023-07-30T03:58:50;100908.72;;;24.10;50.79
21547;BME280;41275;51.912;4.388;2023-07-30T04:04:11;100908.88;;;24.05;50.38
21547;BME280;41275;51.912;4.388;2023-07-30T04:09:33;100908.41;;;24.12;49.51
21547;BME280;41275;51.912;4.388;2023-07-30T04:14:54;100911.59;;;24.22;48.74
21547;BME280;41275;51.912;4.388;2023-07-30T04:20:15;100915.09;;;24.32;48.00
21547;BME280;41275;51.912;4.388;2023-07-30T04:25:36;100906.41;;;24.43;46.88
21547;BME280;41275;51.912;4.388;2023-07-30T04:30:58;100914.38;;;24.48;46.90
21547;BME280;41275;51.912;4.388;2023-07-30T04:36:19;100911.16;;;24.38;47.64
21547;BME280;41275;51.912;4.388;2023-07-30T04:41:40;100924.34;;;24.22;49.34
21547;BME280;41275;51.912;4.388;2023-07-30T04:47:01;100922.53;;;24.09;50.03
21547;BME280;41275;51.912;4.388;2023-07-30T04:52:23;100930.34;;;24.02;50.71
21547;BME280;41275;51.912;4.388;2023-07-30T04:57:44;100930.44;;;23.88;51.27
21547;BME280;41275;51.912;4.388;2023-07-30T05:03:06;100933.47;;;23.86;51.51
21547;BME280;41275;51.912;4.388;2023-07-30T05:08:27;100931.22;;;23.88;51.77
21547;BME280;41275;51.912;4.388;2023-07-30T05:13:48;100927.28;;;23.94;52.29
21547;BME280;41275;51.912;4.388;2023-07-30T05:19:10;100930.28;;;23.93;52.08
21547;BME280;41275;51.912;4.388;2023-07-30T05:24:31;100942.72;;;24.03;51.98
21547;BME280;41275;51.912;4.388;2023-07-30T05:29:52;100937.16;;;24.08;51.78
21547;BME280;41275;51.912;4.388;2023-07-30T05:35:13;100935.44;;;24.12;52.12
21547;BME280;41275;51.912;4.388;2023-07-30T05:40:35;100942.94;;;24.23;51.74
21547;BME280;41275;51.912;4.388;2023-07-30T05:45:57;100935.47;;;24.29;51.41
21547;BME280;41275;51.912;4.388;2023-07-30T05:51:18;100931.06;;;24.59;50.87
21547;BME280;41275;51.912;4.388;2023-07-30T05:56:39;100925.81;;;24.71;49.99
21547;BME280;41275;51.912;4.388;2023-07-30T06:02:02;100935.38;;;24.78;49.56
21547;BME280;41275;51.912;4.388;2023-07-30T06:07:24;100934.75;;;24.72;49.20
21547;BME280;41275;51.912;4.388;2023-07-30T06:12:45;100930.75;;;24.69;49.09
21547;BME280;41275;51.912;4.388;2023-07-30T06:18:06;100940.63;;;24.74;49.32
21547;BME280;41275;51.912;4.388;2023-07-30T06:23:27;100943.00;;;24.67;49.33
21547;BME280;41275;51.912;4.388;2023-07-30T06:28:49;100945.25;;;24.73;49.36
21547;BME280;41275;51.912;4.388;2023-07-30T06:34:10;100937.13;;;24.73;49.19
21547;BME280;41275;51.912;4.388;2023-07-30T06:39:31;100944.47;;;24.64;49.12
21547;BME280;41275;51.912;4.388;2023-07-30T06:44:52;100961.00;;;24.63;49.45
21547;BME280;41275;51.912;4.388;2023-07-30T06:50:13;100957.47;;;24.80;49.26
21547;BME280;41275;51.912;4.388;2023-07-30T06:55:35;100950.00;;;24.85;49.35
21547;BME280;41275;51.912;4.388;2023-07-30T07:00:56;100952.56;;;25.08;48.86
21547;BME280;41275;51.912;4.388;2023-07-30T07:06:17;100950.00;;;25.20;48.78
21547;BME280;41275;51.912;4.388;2023-07-30T07:11:38;100961.31;;;25.13;48.57
21547;BME280;41275;51.912;4.388;2023-07-30T07:17:00;100965.28;;;25.25;48.71
21547;BME280;41275;51.912;4.388;2023-07-30T07:22:21;100963.84;;;25.18;48.60
21547;BME280;41275;51.912;4.388;2023-07-30T07:27:42;100965.31;;;25.16;48.14
21547;BME280;41275;51.912;4.388;2023-07-30T07:33:03;100987.75;;;25.08;48.30
21547;BME280;41275;51.912;4.388;2023-07-30T07:38:26;100986.94;;;25.33;47.65
21547;BME280;41275;51.912;4.388;2023-07-30T07:43:47;100990.88;;;25.53;46.98
21547;BME280;41275;51.912;4.388;2023-07-30T07:49:09;100990.22;;;25.56;45.91
21547;BME280;41275;51.912;4.388;2023-07-30T07:54:30;100994.34;;;25.71;44.26
21547;BME280;41275;51.912;4.388;2023-07-30T07:59:51;100994.50;;;25.66;43.37
21547;BME280;41275;51.912;4.388;2023-07-30T08:05:13;101005.69;;;25.56;43.21
21547;BME280;41275;51.912;4.388;2023-07-30T08:10:38;101003.25;;;25.71;42.93
21547;BME280;41275;51.912;4.388;2023-07-30T08:16:01;101008.69;;;25.80;42.52
21547;BME280;41275;51.912;4.388;2023-07-30T08:21:22;101018.56;;;25.67;42.45
21547;BME280;41275;51.912;4.388;2023-07-30T08:26:43;101015.97;;;25.88;42.02
21547;BME280;41275;51.912;4.388;2023-07-30T08:32:05;101016.78;;;25.89;41.58
21547;BME280;41275;51.912;4.388;2023-07-30T08:37:26;101007.38;;;25.86;41.73
21547;BME280;41275;51.912;4.388;2023-07-30T08:42:47;100982.31;;;25.89;41.96
21547;BME280;41275;51.912;4.388;2023-07-30T08:48:09;101005.53;;;26.08;41.49
21547;BME280;41275;51.912;4.388;2023-07-30T08:53:30;101014.00;;;26.06;41.35
21547;BME280;41275;51.912;4.388;2023-07-30T08:58:51;101016.63;;;25.85;41.38
21547;BME280;41275;51.912;4.388;2023-07-30T09:04:17;101023.03;;;25.72;41.34
21547;BME280;41275;51.912;4.388;2023-07-30T09:09:39;101023.81;;;25.73;41.44
21547;BME280;41275;51.912;4.388;2023-07-30T09:15:07;101063.03;;;25.84;40.78
21547;BME280;41275;51.912;4.388;2023-07-30T09:20:36;101033.19;;;25.92;40.67
21547;BME280;41275;51.912;4.388;2023-07-30T09:25:58;101046.44;;;26.62;40.09
21547;BME280;41275;51.912;4.388;2023-07-30T09:31:19;101042.28;;;27.06;39.32
21547;BME280;41275;51.912;4.388;2023-07-30T09:36:40;101048.56;;;26.98;38.76
21547;BME280;41275;51.912;4.388;2023-07-30T09:42:01;101076.88;;;27.18;38.03
21547;BME280;41275;51.912;4.388;2023-07-30T09:47:28;101061.94;;;27.03;37.99
21547;BME280;41275;51.912;4.388;2023-07-30T09:52:51;101061.09;;;27.11;38.10
21547;BME280;41275;51.912;4.388;2023-07-30T09:58:13;101055.06;;;27.06;37.31
21547;BME280;41275;51.912;4.388;2023-07-30T10:03:35;101068.78;;;27.30;36.72
21547;BME280;41275;51.912;4.388;2023-07-30T10:08:58;101081.25;;;27.10;36.93
21547;BME280;41275;51.912;4.388;2023-07-30T10:14:22;101081.88;;;27.07;37.83
21547;BME280;41275;51.912;4.388;2023-07-30T10:19:49;101103.09;;;26.93;38.15
21547;BME280;41275;51.912;4.388;2023-07-30T10:25:12;101090.81;;;26.66;38.40
21547;BME280;41275;51.912;4.388;2023-07-30T10:30:34;101096.59;;;26.85;37.33
21547;BME280;41275;51.912;4.388;2023-07-30T10:35:56;101101.25;;;26.76;37.81
21547;BME280;41275;51.912;4.388;2023-07-30T10:41:18;101108.56;;;26.55;38.44
21547;BME280;41275;51.912;4.388;2023-07-30T10:46:40;101113.72;;;26.77;38.61
21547;BME280;41275;51.912;4.388;2023-07-30T10:52:01;101117.59;;;26.97;38.96
21547;BME280;41275;51.912;4.388;2023-07-30T10:57:22;101117.38;;;27.65;37.07
21547;BME280;41275;51.912;4.388;2023-07-30T11:02:53;101123.47;;;27.62;37.66
21547;BME280;41275;51.912;4.388;2023-07-30T11:08:14;101134.03;;;27.63;37.75
21547;BME280;41275;51.912;4.388;2023-07-30T11:13:46;101145.09;;;27.58;37.90
21547;BME280;41275;51.912;4.388;2023-07-30T11:19:08;101137.34;;;27.69;37.37
21547;BME280;41275;51.912;4.388;2023-07-30T11:24:36;101133.38;;;27.46;37.32
21547;BME280;41275;51.912;4.388;2023-07-30T11:29:58;101144.53;;;27.32;38.04
21547;BME280;41275;51.912;4.388;2023-07-30T11:35:19;101142.72;;;27.15;38.31
21547;BME280;41275;51.912;4.388;2023-07-30T11:40:41;101155.56;;;27.06;38.66
21547;BME280;41275;51.912;4.388;2023-07-30T11:46:06;101160.72;;;27.28;38.71
21547;BME280;41275;51.912;4.388;2023-07-30T11:51:29;101153.84;;;27.85;37.67
21547;BME280;41275;51.912;4.388;2023-07-30T11:56:54;101162.38;;;27.96;37.80
21547;BME280;41275;51.912;4.388;2023-07-30T12:02:17;101161.22;;;27.84;36.96
21547;BME280;41275;51.912;4.388;2023-07-30T12:07:40;101159.75;;;27.87;37.29
21547;BME280;41275;51.912;4.388;2023-07-30T12:13:02;101147.66;;;28.54;36.70
21547;BME280;41275;51.912;4.388;2023-07-30T12:18:24;101145.81;;;28.83;35.84
21547;BME280;41275;51.912;4.388;2023-07-30T12:23:45;101150.59;;;28.74;35.22
21547;BME280;41275;51.912;4.388;2023-07-30T12:29:07;101169.16;;;28.96;34.52
21547;BME280;41275;51.912;4.388;2023-07-30T12:34:28;101169.22;;;29.77;33.15
21547;BME280;41275;51.912;4.388;2023-07-30T12:39:49;101165.84;;;30.91;30.96
21547;BME280;41275;51.912;4.388;2023-07-30T12:45:10;101169.41;;;30.60;30.96
21547;BME280;41275;51.912;4.388;2023-07-30T12:50:32;101155.13;;;29.75;31.73
21547;BME280;41275;51.912;4.388;2023-07-30T12:55:53;101163.06;;;28.99;33.25
21547;BME280;41275;51.912;4.388;2023-07-30T13:01:16;101154.00;;;28.58;34.49
21547;BME280;41275;51.912;4.388;2023-07-30T13:06:37;101141.34;;;29.15;33.84
21547;BME280;41275;51.912;4.388;2023-07-30T13:11:59;101163.59;;;29.17;33.09
21547;BME280;41275;51.912;4.388;2023-07-30T13:17:20;101180.66;;;28.77;33.70
21547;BME280;41275;51.912;4.388;2023-07-30T13:22:41;101171.34;;;28.78;34.18
21547;BME280;41275;51.912;4.388;2023-07-30T13:28:02;101170.22;;;29.16;33.89
21547;BME280;41275;51.912;4.388;2023-07-30T13:33:24;101183.50;;;30.02;33.69
21547;BME280;41275;51.912;4.388;2023-07-30T13:38:45;101188.44;;;29.96;33.17
21547;BME280;41275;51.912;4.388;2023-07-30T13:44:06;101180.50;;;29.63;34.02
21547;BME280;41275;51.912;4.388;2023-07-30T13:49:27;101187.06;;;29.74;33.37
21547;BME280;41275;51.912;4.388;2023-07-30T13:54:48;101166.44;;;28.96;34.40
21547;BME280;41275;51.912;4.388;2023-07-30T14:00:10;101180.25;;;29.96;33.26
21547;BME280;41275;51.912;4.388;2023-07-30T14:05:32;101193.81;;;30.37;32.62
21547;BME280;41275;51.912;4.388;2023-07-30T14:10:53;101184.75;;;29.61;33.17
21547;BME280;41275;51.912;4.388;2023-07-30T14:16:14;101190.28;;;28.87;34.31
21547;BME280;41275;51.912;4.388;2023-07-30T14:21:36;101183.84;;;29.16;33.93
21547;BME280;41275;51.912;4.388;2023-07-30T14:26:57;101180.97;;;29.25;34.17
21547;BME280;41275;51.912;4.388;2023-07-30T14:32:20;101193.22;;;28.45;35.49
21547;BME280;41275;51.912;4.388;2023-07-30T14:37:41;101172.97;;;28.22;36.18
21547;BME280;41275;51.912;4.388;2023-07-30T14:43:03;101181.09;;;28.67;36.30
21547;BME280;41275;51.912;4.388;2023-07-30T14:48:24;101176.44;;;28.68;36.88
21547;BME280;41275;51.912;4.388;2023-07-30T14:53:45;101172.94;;;28.09;38.30
21547;BME280;41275;51.912;4.388;2023-07-30T14:59:06;101173.41;;;28.11;38.16
21547;BME280;41275;51.912;4.388;2023-07-30T15:04:28;101157.50;;;28.01;38.37
21547;BME280;41275;51.912;4.388;2023-07-30T15:09:52;101163.28;;;28.00;38.34
21547;BME280;41275;51.912;4.388;2023-07-30T15:15:13;101174.91;;;28.33;37.69
21547;BME280;41275;51.912;4.388;2023-07-30T15:20:34;101159.13;;;28.02;37.52
21547;BME280;41275;51.912;4.388;2023-07-30T15:25:56;101165.13;;;27.54;38.21
21547;BME280;41275;51.912;4.388;2023-07-30T15:31:17;101160.88;;;27.65;38.52
21547;BME280;41275;51.912;4.388;2023-07-30T15:36:38;101160.78;;;27.40;38.93
21547;BME280;41275;51.912;4.388;2023-07-30T15:42:02;101148.31;;;26.89;40.25
21547;BME280;41275;51.912;4.388;2023-07-30T15:47:24;101168.47;;;26.50;41.44
21547;BME280;41275;51.912;4.388;2023-07-30T15:52:45;101162.75;;;26.34;41.88
21547;BME280;41275;51.912;4.388;2023-07-30T15:58:06;101169.97;;;26.21;42.43
21547;BME280;41275;51.912;4.388;2023-07-30T16:03:27;101179.44;;;25.98;43.08
21547;BME280;41275;51.912;4.388;2023-07-30T16:08:49;101168.28;;;25.73;43.75
21547;BME280;41275;51.912;4.388;2023-07-30T16:14:10;101164.44;;;25.74;43.93
21547;BME280;41275;51.912;4.388;2023-07-30T16:19:35;101156.34;;;25.83;44.08
21547;BME280;41275;51.912;4.388;2023-07-30T16:24:57;101151.38;;;25.76;44.60
21547;BME280;41275;51.912;4.388;2023-07-30T16:30:18;101154.25;;;25.71;45.06
21547;BME280;41275;51.912;4.388;2023-07-30T16:35:39;101143.56;;;25.75;45.20
21547;BME280;41275;51.912;4.388;2023-07-30T16:41:01;101151.22;;;25.29;46.07
21547;BME280;41275;51.912;4.388;2023-07-30T16:46:22;101152.88;;;24.99;47.00
21547;BME280;41275;51.912;4.388;2023-07-30T16:51:43;101146.03;;;24.84;47.82
21547;BME280;41275;51.912;4.388;2023-07-30T16:57:05;101147.44;;;24.73;48.02
21547;BME280;41275;51.912;4.388;2023-07-30T17:02:26;101143.94;;;24.81;48.87
21547;BME280;41275;51.912;4.388;2023-07-30T17:07:47;101137.91;;;24.93;49.07
21547;BME280;41275;51.912;4.388;2023-07-30T17:13:09;101127.72;;;24.90;49.39
21547;BME280;41275;51.912;4.388;2023-07-30T17:18:30;101132.81;;;24.91;49.63
21547;BME280;41275;51.912;4.388;2023-07-30T17:23:51;101120.00;;;24.66;50.01
21547;BME280;41275;51.912;4.388;2023-07-30T17:29:12;101104.91;;;24.65;50.05
21547;BME280;41275;51.912;4.388;2023-07-30T17:34:34;101117.94;;;24.63;50.46
21547;BME280;41275;51.912;4.388;2023-07-30T17:39:55;101111.91;;;24.66;50.52
21547;BME280;41275;51.912;4.388;2023-07-30T17:45:16;101107.91;;;24.63;50.71
21547;BME280;41275;51.912;4.388;2023-07-30T17:50:37;101089.00;;;24.72;50.66
21547;BME280;41275;51.912;4.388;2023-07-30T17:56:00;101088.84;;;24.68;50.88
21547;BME280;41275;51.912;4.388;2023-07-30T18:01:21;101102.38;;;24.68;51.31
21547;BME280;41275;51.912;4.388;2023-07-30T18:06:42;101095.31;;;24.59;51.47
21547;BME280;41275;51.912;4.388;2023-07-30T18:12:04;101100.88;;;24.54;51.72
21547;BME280;41275;51.912;4.388;2023-07-30T18:17:31;101090.84;;;24.45;52.12
21547;BME280;41275;51.912;4.388;2023-07-30T18:22:52;101098.63;;;24.47;52.32
21547;BME280;41275;51.912;4.388;2023-07-30T18:28:14;101102.63;;;24.49;52.70
21547;BME280;41275;51.912;4.388;2023-07-30T18:33:35;101094.97;;;24.52;52.75
21547;BME280;41275;51.912;4.388;2023-07-30T18:38:56;101100.91;;;24.62;52.48
21547;BME280;41275;51.912;4.388;2023-07-30T18:44:17;101098.19;;;24.62;52.75
21547;BME280;41275;51.912;4.388;2023-07-30T18:49:39;101089.88;;;24.50;52.53
21547;BME280;41275;51.912;4.388;2023-07-30T18:55:00;101107.31;;;24.35;52.64
21547;BME280;41275;51.912;4.388;2023-07-30T19:00:21;101110.56;;;24.15;52.71
21547;BME280;41275;51.912;4.388;2023-07-30T19:05:51;101100.53;;;23.84;52.88
21547;BME280;41275;51.912;4.388;2023-07-30T19:11:12;101099.19;;;23.73;53.48
21547;BME280;41275;51.912;4.388;2023-07-30T19:16:33;101089.63;;;23.67;53.24
21547;BME280;41275;51.912;4.388;2023-07-30T19:21:55;101107.09;;;23.47;53.62
21547;BME280;41275;51.912;4.388;2023-07-30T19:27:16;101100.88;;;23.46;53.83
21547;BME280;41275;51.912;4.388;2023-07-30T19:32:38;101112.03;;;23.31;53.31
21547;BME280;41275;51.912;4.388;2023-07-30T19:37:59;101103.03;;;23.22;53.01
21547;BME280;41275;51.912;4.388;2023-07-30T19:43:21;101111.16;;;23.22;53.27
21547;BME280;41275;51.912;4.388;2023-07-30T19:48:43;101111.94;;;23.22;53.28
21547;BME280;41275;51.912;4.388;2023-07-30T19:54:05;101122.53;;;23.33;53.47
21547;BME280;41275;51.912;4.388;2023-07-30T19:59:26;101100.91;;;23.33;53.67
21547;BME280;41275;51.912;4.388;2023-07-30T20:04:47;101097.03;;;23.25;53.39
21547;BME280;41275;51.912;4.388;2023-07-30T20:10:10;101091.66;;;23.25;53.44
21547;BME280;41275;51.912;4.388;2023-07-30T20:15:32;101090.84;;;23.24;53.64
21547;BME280;41275;51.912;4.388;2023-07-30T20:20:54;101095.59;;;23.19;53.55
21547;BME280;41275;51.912;4.388;2023-07-30T20:26:16;101106.28;;;23.10;53.67
21547;BME280;41275;51.912;4.388;2023-07-30T20:31:37;101106.91;;;23.07;53.87
21547;BME280;41275;51.912;4.388;2023-07-30T20:36:59;101089.53;;;22.99;53.80
21547;BME280;41275;51.912;4.388;2023-07-30T20:42:20;101078.81;;;22.94;54.34
21547;BME280;41275;51.912;4.388;2023-07-30T20:47:43;101081.13;;;23.01;54.53
21547;BME280;41275;51.912;4.388;2023-07-30T20:53:05;101083.09;;;23.09;54.86
21547;BME280;41275;51.912;4.388;2023-07-30T20:58:26;101069.19;;;23.16;54.79
21547;BME280;41275;51.912;4.388;2023-07-30T21:03:47;101079.53;;;23.22;55.12
21547;BME280;41275;51.912;4.388;2023-07-30T21:09:09;101066.34;;;23.21;55.10
21547;BME280;41275;51.912;4.388;2023-07-30T21:14:30;101082.25;;;23.22;55.26
21547;BME280;41275;51.912;4.388;2023-07-30T21:19:51;101075.81;;;23.32;55.24
21547;BME280;41275;51.912;4.388;2023-07-30T21:25:12;101065.63;;;23.29;55.21
21547;BME280;41275;51.912;4.388;2023-07-30T21:30:33;101063.91;;;23.33;55.40
21547;BME280;41275;51.912;4.388;2023-07-30T21:35:55;101062.00;;;23.34;55.44
21547;BME280;41275;51.912;4.388;2023-07-30T21:41:16;101043.47;;;23.18;55.46
21547;BME280;41275;51.912;4.388;2023-07-30T21:46:38;101051.28;;;23.20;55.74
21547;BME280;41275;51.912;4.388;2023-07-30T21:51:59;101051.41;;;23.15;55.63
21547;BME280;41275;51.912;4.388;2023-07-30T21:57:21;101029.81;;;23.15;55.93
21547;BME280;41275;51.912;4.388;2023-07-30T22:02:42;101018.75;;;23.25;55.98
21547;BME280;41275;51.912;4.388;2023-07-30T22:08:04;101014.75;;;23.22;56.68
21547;BME280;41275;51.912;4.388;2023-07-30T22:13:25;101020.78;;;23.19;57.48
21547;BME280;41275;51.912;4.388;2023-07-30T22:18:46;101019.34;;;23.22;57.96
21547;BME280;41275;51.912;4.388;2023-07-30T22:24:07;101024.28;;;23.20;58.26
21547;BME280;41275;51.912;4.388;2023-07-30T22:29:28;101014.75;;;23.22;58.76
21547;BME280;41275;51.912;4.388;2023-07-30T22:34:50;101017.94;;;23.24;58.99
21547;BME280;41275;51.912;4.388;2023-07-30T22:40:11;101021.94;;;23.27;58.88
21547;BME280;41275;51.912;4.388;2023-07-30T22:45:32;101012.41;;;23.30;58.70
21547;BME280;41275;51.912;4.388;2023-07-30T22:50:53;101019.59;;;23.34;58.85
21547;BME280;41275;51.912;4.388;2023-07-30T22:56:15;101009.72;;;23.30;58.90
21547;BME280;41275;51.912;4.388;2023-07-30T23:01:36;100995.94;;;23.31;59.14
21547;BME280;41275;51.912;4.388;2023-07-30T23:06:57;100990.81;;;23.30;59.24
21547;BME280;41275;51.912;4.388;2023-07-30T23:12:18;100997.19;;;23.34;59.38
21547;BME280;41275;51.912;4.388;2023-07-30T23:17:40;100989.16;;;23.42;59.29
21547;BME280;41275;51.912;4.388;2023-07-30T23:23:01;100983.13;;;23.45;59.22
21547;BME280;41275;51.912;4.388;2023-07-30T23:28:22;100994.16;;;23.58;59.20
21547;BME280;41275;51.912;4.388;2023-07-30T23:33:44;100979.31;;;23.69;58.72
21547;BME280;41275;51.912;4.388;2023-07-30T23:39:05;100959.03;;;23.80;58.29
21547;BME280;41275;51.912;4.388;2023-07-30T23:44:26;100956.31;;;23.80;58.02
21547;BME280;41275;51.912;4.388;2023-07-30T23:49:47;100973.28;;;23.72;57.77
21547;BME280;41275;51.912;4.388;2023-07-30T23:55:09;100965.50;;;23.70;57.91
